Time;durP1;ratioP1;P1;durP2;ratioP2;P2;SDS_P1;SDS_P2;PMS_P1;PMS_P2;Temp;Humidity;BMP_temperature;BMP_pressure;BME280_temperature;BME280_humidity;BME280_pressure;Samples;Min_cycle;Max_cycle;Signal;HPM_P1;HPM_P2
2021/08/17 00:02:03;;;;;;;30.02;18.65;;;;;15.20;100588.00;;;;5066153;28;20506;-70
2021/08/17 00:04:30;;;;;;;31.30;20.00;;;;;15.20;100571.00;;;;5065848;28;20077;-71
2021/08/17 00:06:57;;;;;;;28.73;20.45;;;;;15.20;100577.00;;;;5065862;28;20059;-72
2021/08/17 00:09:23;;;;;;;30.48;21.25;;;;;15.20;100571.00;;;;5066542;28;20025;-70
2021/08/17 00:11:50;;;;;;;28.55;19.60;;;;;15.20;100587.00;;;;5066180;28;20128;-70
2021/08/17 00:14:17;;;;;;;32.85;21.17;;;;;15.20;100579.00;;;;5066169;28;20039;-71
2021/08/17 00:16:43;;;;;;;29.75;20.05;;;;;15.20;100594.00;;;;5066599;28;20037;-70
2021/08/17 00:19:10;;;;;;;28.95;21.13;;;;;15.10;100575.00;;;;5065397;28;20496;-70
2021/08/17 00:21:37;;;;;;;32.47;21.30;;;;;15.10;100565.00;;;;5066213;28;20039;-71
2021/08/17 00:24:04;;;;;;;31.23;20.42;;;;;15.10;100580.00;;;;5066160;28;20514;-70
2021/08/17 00:26:31;;;;;;;33.10;20.27;;;;;15.10;100574.00;;;;5066507;28;20032;-70
2021/08/17 00:28:57;;;;;;;29.63;19.70;;;;;15.00;100561.00;;;;5066364;28;20028;-71
2021/08/17 00:31:24;;;;;;;29.67;21.52;;;;;15.00;100554.00;;;;5066591;28;20032;-70
2021/08/17 00:33:50;;;;;;;36.40;21.63;;;;;15.00;100554.00;;;;5065370;28;20385;-71
2021/08/17 00:36:17;;;;;;;30.58;20.17;;;;;15.00;100568.00;;;;5065768;28;20058;-71
2021/08/17 00:38:43;;;;;;;32.28;21.38;;;;;15.00;100562.00;;;;5066664;28;20151;-71
2021/08/17 00:41:11;;;;;;;35.50;20.05;;;;;15.00;100558.00;;;;5066152;28;20115;-70
2021/08/17 00:43:38;;;;;;;30.13;20.60;;;;;14.90;100557.00;;;;5066107;28;20029;-72
2021/08/17 00:46:08;;;;;;;32.03;20.90;;;;;14.90;100559.00;;;;5066170;28;20097;-70
2021/08/17 00:48:38;;;;;;;30.52;20.35;;;;;14.80;100554.00;;;;5065876;28;20069;-70
2021/08/17 00:51:10;;;;;;;31.75;20.65;;;;;14.90;100561.00;;;;5065791;28;20032;-70
2021/08/17 00:53:39;;;;;;;33.88;20.63;;;;;14.90;100556.00;;;;5066238;28;20040;-69
2021/08/17 00:56:06;;;;;;;37.55;21.08;;;;;14.90;100575.00;;;;5065438;28;20495;-70
2021/08/17 00:58:33;;;;;;;35.20;20.70;;;;;14.90;100560.00;;;;5065615;28;20070;-71
2021/08/17 01:01:00;;;;;;;30.48;19.77;;;;;14.90;100562.00;;;;5065027;28;20084;-71
2021/08/17 01:03:27;;;;;;;29.27;19.75;;;;;14.80;100552.00;;;;5066149;28;20368;-70
2021/08/17 01:05:56;;;;;;;30.02;20.63;;;;;14.90;100561.00;;;;5066213;28;20492;-70
2021/08/17 01:08:23;;;;;;;31.38;20.08;;;;;14.90;100564.00;;;;5065813;28;20255;-70
2021/08/17 01:10:49;;;;;;;32.42;20.15;;;;;14.90;100557.00;;;;5065765;28;20047;-71
2021/08/17 01:13:16;;;;;;;31.25;19.73;;;;;14.90;100568.00;;;;5065688;28;20848;-70
2021/08/17 01:15:42;;;;;;;30.80;20.08;;;;;15.00;100542.00;;;;5066778;28;20492;-71
2021/08/17 01:18:09;;;;;;;31.48;20.70;;;;;15.00;100544.00;;;;5069678;28;20472;-70
2021/08/17 01:20:37;;;;;;;33.75;21.23;;;;;15.00;100547.00;;;;5051709;28;20032;-71
2021/08/17 01:23:04;;;;;;;38.33;22.23;;;;;15.00;100542.00;;;;5050281;28;20480;-70
2021/08/17 01:25:34;;;;;;;33.80;22.58;;;;;15.00;100539.00;;;;5049305;28;20162;-71
2021/08/17 01:28:01;;;;;;;31.77;20.85;;;;;15.00;100548.00;;;;5049256;28;20032;-70
2021/08/17 01:30:27;;;;;;;36.22;21.48;;;;;15.00;100551.00;;;;5049584;28;20485;-70
2021/08/17 01:32:54;;;;;;;31.95;22.02;;;;;15.00;100542.00;;;;5049182;28;20076;-71
2021/08/17 01:35:21;;;;;;;38.15;22.80;;;;;15.00;100549.00;;;;5031601;28;20028;-71
2021/08/17 01:37:47;;;;;;;31.40;21.33;;;;;15.00;100558.00;;;;5049121;28;20029;-70
2021/08/17 01:40:14;;;;;;;36.67;22.30;;;;;15.00;100553.00;;;;5049099;28;20025;-73
2021/08/17 01:42:52;;;;;;;35.80;22.48;;;;;15.00;100544.00;;;;5048742;28;20032;-69
2021/08/17 01:45:21;;;;;;;37.53;23.30;;;;;15.00;100534.00;;;;5048081;28;20036;-71
2021/08/17 01:47:52;;;;;;;39.25;22.42;;;;;15.00;100549.00;;;;5047824;28;20528;-71
2021/08/17 01:50:18;;;;;;;;;;;;;15.00;100552.00;;;;5050356;28;20032;-71
2021/08/17 01:52:45;;;;;;;37.70;22.15;;;;;15.00;100544.00;;;;5047531;28;20397;-71
2021/08/17 01:55:13;;;;;;;35.20;22.80;;;;;15.00;100533.00;;;;5048383;28;20036;-70
2021/08/17 01:57:40;;;;;;;38.78;22.50;;;;;15.10;100544.00;;;;5048335;28;20429;-71
2021/08/17 02:00:08;;;;;;;42.33;23.17;;;;;15.10;100526.00;;;;5048165;28;20044;-72
2021/08/17 02:02:35;;;;;;;39.00;22.90;;;;;15.10;100530.00;;;;5048875;28;20033;-71
2021/08/17 02:05:02;;;;;;;37.42;23.33;;;;;15.10;100540.00;;;;5048679;28;20397;-71
2021/08/17 02:07:29;;;;;;;32.65;20.50;;;;;15.10;100530.00;;;;5047780;28;20098;-70
2021/08/17 02:09:55;;;;;;;40.97;23.15;;;;;15.10;100536.00;;;;5049365;28;20033;-70
2021/08/17 02:12:22;;;;;;;37.13;22.58;;;;;15.10;100534.00;;;;5048918;28;20033;-70
2021/08/17 02:14:48;;;;;;;35.40;22.58;;;;;15.10;100530.00;;;;5048761;28;20036;-70
2021/08/17 02:17:15;;;;;;;33.17;21.55;;;;;15.10;100534.00;;;;5048177;28;20033;-71
2021/08/17 02:19:41;;;;;;;35.33;22.13;;;;;15.10;100552.00;;;;5048386;28;20061;-70
2021/08/17 02:22:08;;;;;;;35.88;21.73;;;;;15.10;100536.00;;;;5048057;28;20029;-71
2021/08/17 02:24:34;;;;;;;36.20;22.05;;;;;15.10;100545.00;;;;5048404;28;20435;-69
2021/08/17 02:27:01;;;;;;;39.33;22.88;;;;;15.10;100559.00;;;;5047913;28;20033;-71
2021/08/17 02:29:28;;;;;;;33.75;21.27;;;;;15.10;100535.00;;;;5030735;28;20029;-70
2021/08/17 02:31:55;;;;;;;34.03;21.98;;;;;15.10;100517.00;;;;5048315;28;20120;-70
2021/08/17 02:34:21;;;;;;;39.95;23.85;;;;;15.10;100536.00;;;;5047480;28;20044;-71
2021/08/17 02:36:48;;;;;;;40.72;23.95;;;;;15.10;100515.00;;;;5047656;28;20029;-71
2021/08/17 02:39:14;;;;;;;37.67;25.45;;;;;15.10;100523.00;;;;5048303;28;20543;-72
2021/08/17 02:41:41;;;;;;;48.05;25.50;;;;;15.10;100535.00;;;;5048290;28;20021;-71
2021/08/17 02:44:07;;;;;;;47.28;26.15;;;;;15.20;100546.00;;;;5048167;28;20071;-70
2021/08/17 02:46:34;;;;;;;49.80;25.05;;;;;15.20;100525.00;;;;5048071;28;20037;-70
2021/08/17 02:49:01;;;;;;;39.50;24.45;;;;;15.20;100542.00;;;;5047724;28;20056;-70
2021/08/17 02:51:27;;;;;;;39.45;24.55;;;;;15.20;100535.00;;;;5047456;28;20032;-70
2021/08/17 02:53:54;;;;;;;38.30;22.75;;;;;15.20;100526.00;;;;5048212;28;20025;-70
2021/08/17 02:56:20;;;;;;;37.90;22.10;;;;;15.20;100529.00;;;;5029987;28;20036;-70
2021/08/17 02:58:47;;;;;;;38.35;23.80;;;;;15.20;100526.00;;;;5048016;28;20039;-70
2021/08/17 03:01:13;;;;;;;37.08;22.33;;;;;15.20;100523.00;;;;5047391;28;20546;-70
2021/08/17 03:03:40;;;;;;;35.65;23.23;;;;;15.10;100533.00;;;;5047364;28;20021;-71
2021/08/17 03:06:06;;;;;;;37.53;23.70;;;;;15.20;100505.00;;;;5047624;28;20120;-72
2021/08/17 03:08:33;;;;;;;38.38;22.77;;;;;15.20;100510.00;;;;5028670;28;20135;-70
2021/08/17 03:11:00;;;;;;;36.75;23.92;;;;;15.20;100497.00;;;;5047886;28;20507;-70
2021/08/17 03:13:26;;;;;;;34.72;23.08;;;;;15.20;100503.00;;;;5047442;28;20073;-71
2021/08/17 03:15:53;;;;;;;34.80;23.70;;;;;15.20;100481.00;;;;5047214;28;20510;-70
2021/08/17 03:18:20;;;;;;;39.10;23.20;;;;;15.20;100488.00;;;;5047164;28;20112;-71
2021/08/17 03:20:46;;;;;;;38.10;23.30;;;;;15.20;100487.00;;;;5049194;28;20115;-70
2021/08/17 03:23:14;;;;;;;38.70;22.95;;;;;15.20;100498.00;;;;5047272;28;20020;-70
2021/08/17 03:25:43;;;;;;;39.20;24.48;;;;;15.20;100488.00;;;;5046600;28;20052;-70
2021/08/17 03:28:10;;;;;;;39.03;24.27;;;;;15.20;100484.00;;;;5047062;28;20033;-70
2021/08/17 03:30:37;;;;;;;42.00;24.88;;;;;15.20;100471.00;;;;5047302;28;20025;-70
2021/08/17 03:33:04;;;;;;;37.78;23.95;;;;;15.20;100472.00;;;;5046394;28;20040;-71
2021/08/17 03:35:31;;;;;;;38.72;23.83;;;;;15.10;100472.00;;;;5046956;28;20025;-69
2021/08/17 03:37:57;;;;;;;41.38;24.02;;;;;15.10;100476.00;;;;5046992;28;20036;-71
2021/08/17 03:40:24;;;;;;;39.22;23.42;;;;;15.10;100481.00;;;;5046922;28;20552;-71
2021/08/17 03:42:51;;;;;;;38.88;23.38;;;;;15.10;100478.00;;;;5046623;28;20523;-71
2021/08/17 03:45:19;;;;;;;39.55;24.52;;;;;15.10;100482.00;;;;5046682;28;20028;-71
2021/08/17 03:47:47;;;;;;;37.30;24.17;;;;;15.10;100487.00;;;;5046646;28;20461;-71
2021/08/17 03:50:15;;;;;;;37.67;23.50;;;;;15.10;100486.00;;;;5046803;28;20036;-71
2021/08/17 03:52:42;;;;;;;38.42;23.35;;;;;15.10;100495.00;;;;5046680;28;20036;-69
2021/08/17 03:55:10;;;;;;;43.08;24.50;;;;;15.10;100480.00;;;;5046159;28;20120;-71
2021/08/17 03:57:37;;;;;;;38.90;23.15;;;;;15.10;100493.00;;;;5046318;28;20052;-69
2021/08/17 04:00:07;;;;;;;32.90;22.25;;;;;15.10;100473.00;;;;5046429;28;20400;-71
2021/08/17 04:02:33;;;;;;;39.28;23.77;;;;;15.00;100473.00;;;;5046949;28;20135;-71
2021/08/17 04:05:00;;;;;;;41.15;23.88;;;;;15.00;100464.00;;;;5046828;28;20052;-70
2021/08/17 04:07:26;;;;;;;40.05;25.38;;;;;15.10;100456.00;;;;5028572;28;20184;-70
2021/08/17 04:09:53;;;;;;;46.45;28.00;;;;;15.10;100450.00;;;;5045901;28;20033;-71
2021/08/17 04:12:19;;;;;;;40.92;26.83;;;;;15.10;100442.00;;;;5046662;28;20028;-70
2021/08/17 04:14:46;;;;;;;40.50;25.35;;;;;15.10;100423.00;;;;5046722;28;20082;-72
2021/08/17 04:17:13;;;;;;;37.63;24.83;;;;;15.00;100428.00;;;;5046592;28;20772;-70
2021/08/17 04:19:40;;;;;;;35.15;24.90;;;;;15.10;100431.00;;;;5046101;28;20025;-70
2021/08/17 04:22:07;;;;;;;36.83;26.75;;;;;15.10;100431.00;;;;5046122;28;20043;-70
2021/08/17 04:24:34;;;;;;;35.95;24.02;;;;;15.00;100422.00;;;;5046617;28;20048;-70
2021/08/17 04:27:01;;;;;;;38.60;24.75;;;;;15.00;100440.00;;;;5045909;28;20032;-70
2021/08/17 04:29:27;;;;;;;36.05;25.90;;;;;15.00;100456.00;;;;5045886;28;20048;-71
2021/08/17 04:31:54;;;;;;;39.85;27.67;;;;;15.00;100460.00;;;;5046956;28;20033;-72
2021/08/17 04:34:20;;;;;;;35.83;25.90;;;;;14.90;100474.00;;;;5046240;28;20024;-70
2021/08/17 04:36:47;;;;;;;38.20;26.50;;;;;14.90;100457.00;;;;5046478;28;20029;-70
2021/08/17 04:39:15;;;;;;;42.78;25.10;;;;;14.90;100463.00;;;;5046001;28;20025;-71
2021/08/17 04:41:42;;;;;;;39.95;26.13;;;;;14.90;100475.00;;;;5045835;28;20029;-71
2021/08/17 04:44:09;;;;;;;46.30;27.15;;;;;14.90;100476.00;;;;5046063;28;20175;-70
2021/08/17 04:46:35;;;;;;;44.15;27.45;;;;;14.90;100481.00;;;;5046401;28;20036;-71
2021/08/17 04:49:02;;;;;;;40.08;26.85;;;;;15.00;100492.00;;;;5046846;28;20086;-70
2021/08/17 04:51:29;;;;;;;37.08;26.08;;;;;15.00;100488.00;;;;5049863;28;20108;-71
2021/08/17 04:53:56;;;;;;;50.22;29.88;;;;;14.90;100470.00;;;;5050652;28;20021;-70
2021/08/17 04:56:22;;;;;;;42.92;28.63;;;;;14.90;100487.00;;;;5049694;28;20037;-71
2021/08/17 04:58:50;;;;;;;40.45;26.80;;;;;14.80;100485.00;;;;5050291;28;20025;-70
2021/08/17 05:01:17;;;;;;;40.08;26.30;;;;;14.80;100495.00;;;;5032045;28;20033;-71
2021/08/17 05:03:44;;;;;;;44.20;26.52;;;;;14.80;100515.00;;;;5049838;28;20055;-70
2021/08/17 05:06:10;;;;;;;43.95;27.08;;;;;14.80;100515.00;;;;5049834;28;20068;-72
2021/08/17 05:08:39;;;;;;;47.28;28.27;;;;;14.80;100513.00;;;;5049173;28;20049;-71
2021/08/17 05:11:05;;;;;;;55.22;28.95;;;;;14.90;100518.00;;;;5049387;28;20671;-70
2021/08/17 05:13:32;;;;;;;46.95;28.52;;;;;14.90;100501.00;;;;5031956;28;20037;-70
2021/08/17 05:15:58;;;;;;;45.20;28.42;;;;;14.90;100513.00;;;;5049433;28;20396;-70
2021/08/17 05:18:25;;;;;;;43.63;28.45;;;;;14.90;100524.00;;;;5049418;28;20041;-71
2021/08/17 05:20:52;;;;;;;49.05;28.67;;;;;14.90;100519.00;;;;5049553;28;20029;-70
2021/08/17 05:23:18;;;;;;;46.80;29.08;;;;;14.90;100519.00;;;;5049269;28;20109;-71
2021/08/17 05:25:45;;;;;;;52.42;30.35;;;;;14.90;100512.00;;;;5049547;28;20435;-70
2021/08/17 05:28:11;;;;;;;50.28;29.55;;;;;14.80;100522.00;;;;5049561;28;20036;-71
2021/08/17 05:30:38;;;;;;;49.10;28.65;;;;;14.80;100524.00;;;;5049395;28;20025;-71
2021/08/17 05:33:04;;;;;;;47.38;28.67;;;;;14.80;100540.00;;;;5049254;28;20032;-72
2021/08/17 05:35:31;;;;;;;43.83;27.77;;;;;14.80;100523.00;;;;5049795;28;20024;-71
2021/08/17 05:37:57;;;;;;;47.15;29.10;;;;;14.80;100519.00;;;;5048934;28;20515;-71
2021/08/17 05:40:25;;;;;;;46.40;29.50;;;;;14.80;100503.00;;;;5049580;28;20037;-71
2021/08/17 05:42:51;;;;;;;52.25;30.65;;;;;14.80;100520.00;;;;5049235;28;20025;-71
2021/08/17 05:45:18;;;;;;;53.28;30.17;;;;;14.80;100531.00;;;;5048987;28;20150;-70
2021/08/17 05:47:46;;;;;;;52.08;30.02;;;;;14.80;100526.00;;;;5049168;28;20037;-70
2021/08/17 05:50:17;;;;;;;48.70;29.80;;;;;14.80;100524.00;;;;5048892;28;20386;-71
2021/08/17 05:52:44;;;;;;;50.30;30.92;;;;;14.70;100512.00;;;;5049247;28;20021;-70
2021/08/17 05:55:11;;;;;;;51.58;30.05;;;;;14.80;100516.00;;;;5049078;28;20029;-70
2021/08/17 05:57:38;;;;;;;49.25;30.00;;;;;14.80;100508.00;;;;5049581;28;20492;-71
2021/08/17 06:00:11;;;;;;;46.05;28.80;;;;;14.80;100498.00;;;;5048495;28;20412;-71
2021/08/17 06:02:38;;;;;;;50.15;29.50;;;;;14.80;100512.00;;;;5048034;28;20788;-71
2021/08/17 06:05:05;;;;;;;47.60;29.73;;;;;14.70;100504.00;;;;5047989;28;20040;-70
2021/08/17 06:07:32;;;;;;;47.20;28.63;;;;;14.70;100493.00;;;;5048828;28;20049;-70
2021/08/17 06:09:58;;;;;;;52.40;31.25;;;;;14.80;100496.00;;;;5048594;28;20424;-70
2021/08/17 06:12:25;;;;;;;53.78;29.92;;;;;14.70;100477.00;;;;5048571;28;20033;-71
2021/08/17 06:14:52;;;;;;;46.47;29.27;;;;;14.70;100467.00;;;;5048842;28;20424;-69
2021/08/17 06:17:18;;;;;;;52.00;32.70;;;;;14.70;100457.00;;;;5048628;28;20024;-70
2021/08/17 06:19:45;;;;;;;55.45;30.80;;;;;14.70;100450.00;;;;5048302;28;20040;-70
2021/08/17 06:22:11;;;;;;;54.33;32.05;;;;;14.60;100456.00;;;;5048542;28;20107;-71
2021/08/17 06:24:38;;;;;;;56.13;32.95;;;;;14.60;100438.00;;;;5048360;28;20033;-71
2021/08/17 06:27:04;;;;;;;60.72;33.65;;;;;14.60;100437.00;;;;5048552;28;20041;-71
2021/08/17 06:29:31;;;;;;;64.60;35.05;;;;;14.60;100440.00;;;;5047857;28;20037;-70
2021/08/17 06:31:57;;;;;;;60.83;33.92;;;;;14.60;100427.00;;;;5048392;28;20021;-70
2021/08/17 06:34:24;;;;;;;62.53;34.08;;;;;14.60;100431.00;;;;5048141;28;20502;-71
2021/08/17 06:36:51;;;;;;;61.72;32.35;;;;;14.60;100434.00;;;;5048715;28;20070;-69
2021/08/17 06:39:20;;;;;;;56.80;33.40;;;;;14.50;100415.00;;;;5048788;28;20464;-70
2021/08/17 06:41:48;;;;;;;60.00;34.25;;;;;14.50;100426.00;;;;5048047;28;20067;-71
2021/08/17 06:44:15;;;;;;;61.50;35.88;;;;;14.60;100417.00;;;;5048153;28;20032;-71
2021/08/17 06:46:42;;;;;;;60.72;33.50;;;;;14.60;100411.00;;;;5047176;28;20415;-71
2021/08/17 06:49:09;;;;;;;64.22;35.90;;;;;14.60;100422.00;;;;5047657;28;20691;-71
2021/08/17 06:51:35;;;;;;;68.60;37.45;;;;;14.60;100426.00;;;;5048001;28;20468;-71
2021/08/17 06:54:02;;;;;;;62.25;36.70;;;;;14.60;100434.00;;;;5047844;28;20043;-71
2021/08/17 06:56:28;;;;;;;61.08;35.25;;;;;14.60;100434.00;;;;5047512;28;20036;-71
2021/08/17 06:58:55;;;;;;;61.90;35.80;;;;;14.50;100428.00;;;;5048518;28;20036;-70
2021/08/17 07:01:21;;;;;;;65.60;37.42;;;;;14.60;100426.00;;;;5047120;28;20032;-71
2021/08/17 07:03:48;;;;;;;65.90;36.30;;;;;14.60;100415.00;;;;5047534;28;20124;-71
2021/08/17 07:06:14;;;;;;;62.33;34.40;;;;;14.50;100406.00;;;;5047237;28;20411;-69
2021/08/17 07:08:41;;;;;;;68.40;37.10;;;;;14.50;100424.00;;;;5047420;28;20500;-70
2021/08/17 07:11:08;;;;;;;62.78;36.95;;;;;14.50;100424.00;;;;5047460;28;20032;-70
2021/08/17 07:13:35;;;;;;;61.15;35.60;;;;;14.60;100405.00;;;;5046462;28;20029;-71
2021/08/17 07:16:01;;;;;;;59.72;34.20;;;;;14.60;100409.00;;;;5049245;28;20048;-72
2021/08/17 07:18:28;;;;;;;64.65;32.90;;;;;14.50;100393.00;;;;5047853;28;20530;-71
2021/08/17 07:20:54;;;;;;;57.63;33.17;;;;;14.50;100395.00;;;;5047463;28;20024;-70
2021/08/17 07:23:21;;;;;;;58.70;32.00;;;;;14.50;100378.00;;;;5046932;28;20063;-71
2021/08/17 07:25:48;;;;;;;60.17;35.33;;;;;14.50;100384.00;;;;5046635;28;20075;-70
2021/08/17 07:28:15;;;;;;;62.63;35.38;;;;;14.50;100396.00;;;;5046874;28;20033;-70
2021/08/17 07:30:42;;;;;;;64.40;36.05;;;;;14.50;100396.00;;;;5047089;28;20033;-71
2021/08/17 07:33:09;;;;;;;66.38;36.35;;;;;14.50;100386.00;;;;5046996;28;20037;-71
2021/08/17 07:35:36;;;;;;;63.53;35.42;;;;;14.50;100380.00;;;;5047010;28;20033;-71
2021/08/17 07:38:03;;;;;;;70.40;38.42;;;;;14.40;100376.00;;;;5046834;28;20044;-71
2021/08/17 07:40:29;;;;;;;62.78;35.50;;;;;14.40;100383.00;;;;5046964;28;20397;-69
2021/08/17 07:42:56;;;;;;;65.80;35.72;;;;;14.40;100393.00;;;;5046434;28;20025;-72
2021/08/17 07:45:23;;;;;;;70.20;35.55;;;;;14.40;100383.00;;;;5046515;28;20056;-70
2021/08/17 07:47:49;;;;;;;73.57;36.97;;;;;14.40;100387.00;;;;5047158;28;20029;-70
2021/08/17 07:50:16;;;;;;;67.55;34.65;;;;;14.40;100377.00;;;;5047010;28;20029;-70
2021/08/17 07:52:43;;;;;;;70.68;36.55;;;;;14.40;100383.00;;;;5028601;28;20531;-70
2021/08/17 07:55:12;;;;;;;63.15;35.22;;;;;14.40;100402.00;;;;5046507;28;20048;-70
2021/08/17 07:57:39;;;;;;;67.88;35.63;;;;;14.30;100389.00;;;;5046208;28;20036;-71
2021/08/17 08:00:09;;;;;;;77.43;36.80;;;;;14.40;100390.00;;;;5047177;28;20025;-71
2021/08/17 08:02:36;;;;;;;77.20;36.90;;;;;14.40;100399.00;;;;5046650;28;20472;-71
2021/08/17 08:05:03;;;;;;;78.38;39.00;;;;;14.40;100390.00;;;;5028647;28;20492;-71
2021/08/17 08:07:29;;;;;;;97.80;39.42;;;;;14.30;100403.00;;;;5045891;28;20136;-70
2021/08/17 08:09:56;;;;;;;81.90;38.83;;;;;14.30;100403.00;;;;5028612;28;20455;-71
2021/08/17 08:12:23;;;;;;;81.90;37.03;;;;;14.20;100414.00;;;;5046302;28;20032;-70
2021/08/17 08:14:50;;;;;;;81.38;36.60;;;;;14.20;100411.00;;;;5046212;28;20735;-71
2021/08/17 08:17:16;;;;;;;80.90;39.42;;;;;14.20;100411.00;;;;5046407;28;20107;-72
2021/08/17 08:19:43;;;;;;;85.95;39.92;;;;;14.20;100423.00;;;;5046495;28;20058;-70
2021/08/17 08:22:11;;;;;;;90.43;39.75;;;;;14.20;100423.00;;;;5046519;28;20029;-71
2021/08/17 08:24:37;;;;;;;100.32;39.78;;;;;14.20;100417.00;;;;5045693;28;21146;-71
2021/08/17 08:27:05;;;;;;;313.83;41.40;;;;;14.20;100411.00;;;;5046412;28;20025;-70
2021/08/17 08:29:32;;;;;;;204.40;41.45;;;;;14.20;100425.00;;;;5046246;28;20079;-71
2021/08/17 08:31:59;;;;;;;125.65;41.72;;;;;14.10;100432.00;;;;5028260;28;20025;-71
2021/08/17 08:34:26;;;;;;;100.07;40.63;;;;;14.20;100418.00;;;;5046061;28;20029;-72
2021/08/17 08:36:53;;;;;;;112.95;43.47;;;;;14.20;100416.00;;;;5045886;28;20031;-71
2021/08/17 08:39:19;;;;;;;120.80;42.80;;;;;14.20;100436.00;;;;5045523;28;20060;-70
2021/08/17 08:41:47;;;;;;;111.60;43.25;;;;;14.20;100429.00;;;;5046152;28;20079;-71
2021/08/17 08:44:14;;;;;;;183.60;43.63;;;;;14.20;100441.00;;;;5046625;28;20029;-70
2021/08/17 08:46:42;;;;;;;109.00;43.03;;;;;14.20;100442.00;;;;5046253;28;20033;-70
2021/08/17 08:49:09;;;;;;;136.70;39.10;;;;;14.20;100443.00;;;;5046036;28;20035;-71
2021/08/17 08:51:36;;;;;;;157.50;39.70;;;;;14.10;100443.00;;;;5045342;28;20029;-71
2021/08/17 08:54:04;;;;;;;293.67;41.70;;;;;14.10;100461.00;;;;5045869;28;20028;-71
2021/08/17 08:56:32;;;;;;;198.95;42.65;;;;;14.10;100453.00;;;;5046246;28;20074;-71
2021/08/17 08:58:58;;;;;;;155.43;42.00;;;;;14.10;100467.00;;;;5045873;28;20029;-71
2021/08/17 09:01:26;;;;;;;217.95;44.38;;;;;14.10;100468.00;;;;5046067;28;20036;-72
2021/08/17 09:03:56;;;;;;;171.18;43.20;;;;;14.10;100474.00;;;;5046553;28;20087;-70
2021/08/17 09:06:26;;;;;;;174.07;42.72;;;;;14.20;100471.00;;;;5045860;28;20060;-70
2021/08/17 09:09:07;;;;;;;337.17;43.22;;;;;14.10;100474.00;;;;5045816;28;20049;-70
2021/08/17 09:11:35;;;;;;;139.10;43.10;;;;;14.20;100476.00;;;;5045042;28;20032;-71
2021/08/17 09:14:19;;;;;;;180.18;42.17;;;;;14.20;100492.00;;;;5045420;28;20423;-71
2021/08/17 09:16:53;;;;;;;158.35;42.72;;;;;14.20;100497.00;;;;5045069;28;20365;-70
2021/08/17 09:19:37;;;;;;;156.23;42.38;;;;;14.20;100491.00;;;;5045929;28;20037;-71
2021/08/17 09:22:12;;;;;;;170.15;40.22;;;;;14.20;100492.00;;;;5045998;28;20408;-70
2021/08/17 09:24:39;;;;;;;181.00;41.70;;;;;14.20;100515.00;;;;5046141;28;20029;-71
2021/08/17 09:27:12;;;;;;;214.30;41.05;;;;;14.20;100505.00;;;;5045635;28;20412;-70
2021/08/17 09:29:42;;;;;;;200.60;40.60;;;;;14.20;100501.00;;;;5045152;28;20025;-71
2021/08/17 09:32:16;;;;;;;159.60;43.17;;;;;14.10;100519.00;;;;5044987;28;20447;-72
2021/08/17 09:34:44;;;;;;;245.45;38.72;;;;;14.20;100517.00;;;;5042898;28;20582;-71
2021/08/17 09:37:11;;;;;;;222.32;39.15;;;;;14.10;100532.00;;;;5045317;28;20040;-71
2021/08/17 09:39:54;;;;;;;268.48;39.83;;;;;14.10;100534.00;;;;5048768;28;20107;-71
2021/08/17 09:42:24;;;;;;;327.70;40.88;;;;;14.10;100520.00;;;;5049250;28;20115;-70
2021/08/17 09:45:06;;;;;;;180.57;36.05;;;;;14.10;100544.00;;;;5048267;28;20516;-71
2021/08/17 09:47:34;;;;;;;335.95;38.92;;;;;14.00;100542.00;;;;5048707;28;20117;-70
2021/08/17 09:50:16;;;;;;;142.23;35.65;;;;;14.10;100539.00;;;;5047528;28;20053;-71
2021/08/17 09:52:43;;;;;;;243.07;35.25;;;;;14.00;100545.00;;;;5048396;28;20025;-71
2021/08/17 09:55:21;;;;;;;357.13;35.13;;;;;14.00;100555.00;;;;5048381;28;20051;-71
2021/08/17 09:57:48;;;;;;;146.98;38.03;;;;;14.00;100541.00;;;;5048647;28;20029;-70
2021/08/17 10:00:17;;;;;;;156.75;35.17;;;;;14.10;100539.00;;;;5048222;28;20035;-70
2021/08/17 10:02:46;;;;;;;158.73;37.92;;;;;14.10;100539.00;;;;5048497;28;20060;-71
2021/08/17 10:05:15;;;;;;;186.05;35.45;;;;;14.10;100544.00;;;;5048415;28;20412;-70
2021/08/17 10:07:43;;;;;;;395.08;36.28;;;;;14.00;100544.00;;;;5047959;28;20060;-71
2021/08/17 10:10:11;;;;;;;334.23;36.35;;;;;14.10;100555.00;;;;5048190;28;20080;-69
2021/08/17 10:12:38;;;;;;;194.70;38.17;;;;;14.10;100558.00;;;;5048282;28;20492;-70
2021/08/17 10:15:07;;;;;;;185.75;37.38;;;;;14.10;100559.00;;;;5048095;28;20033;-69
2021/08/17 10:17:34;;;;;;;311.90;39.97;;;;;14.10;100557.00;;;;5048656;28;20115;-70
2021/08/17 10:20:02;;;;;;;203.25;28.30;;;;;14.10;100569.00;;;;5048409;28;20032;-71
2021/08/17 10:22:29;;;;;;;139.90;32.05;;;;;14.00;100566.00;;;;5048794;28;20500;-71
2021/08/17 10:25:06;;;;;;;167.32;33.35;;;;;14.00;100560.00;;;;5049020;28;20094;-71
2021/08/17 10:27:35;;;;;;;88.47;30.48;;;;;14.00;100568.00;;;;5046114;28;20024;-70
2021/08/17 10:30:20;;;;;;;290.88;30.58;;;;;14.10;100572.00;;;;5047753;28;20029;-71
2021/08/17 10:32:56;;;;;;;177.55;30.27;;;;;14.10;100566.00;;;;5047709;28;20033;-70
2021/08/17 10:35:34;;;;;;;158.20;31.52;;;;;14.20;100582.00;;;;5048312;28;20028;-71
2021/08/17 10:38:12;;;;;;;180.20;30.08;;;;;14.20;100573.00;;;;5047706;28;20033;-70
2021/08/17 10:41:02;;;;;;;204.15;26.65;;;;;14.20;100556.00;;;;5048363;28;20025;-70
2021/08/17 10:43:31;;;;;;;87.00;26.42;;;;;14.20;100580.00;;;;5047934;28;20043;-70
2021/08/17 10:46:04;;;;;;;87.22;23.48;;;;;14.10;100569.00;;;;5047923;28;20033;-71
2021/08/17 10:48:46;;;;;;;56.28;24.27;;;;;14.20;100573.00;;;;5047071;28;20087;-70
2021/08/17 10:51:18;;;;;;;100.55;20.77;;;;;14.20;100578.00;;;;5047548;28;20483;-71
2021/08/17 10:53:46;;;;;;;199.75;21.88;;;;;14.10;100581.00;;;;5047889;28;20156;-71
2021/08/17 10:56:18;;;;;;;107.55;23.05;;;;;14.10;100573.00;;;;5047444;28;20067;-70
2021/08/17 10:58:49;;;;;;;67.50;23.73;;;;;14.20;100566.00;;;;5047397;28;20090;-71
2021/08/17 11:01:48;;;;;;;179.73;22.58;;;;;14.10;100579.00;;;;5047689;28;20086;-71
2021/08/17 11:04:18;;;;;;;62.03;22.65;;;;;14.20;100595.00;;;;5028791;28;20579;-71
2021/08/17 11:06:49;;;;;;;121.85;21.63;;;;;14.20;100576.00;;;;5047749;28;20044;-70
2021/08/17 11:09:22;;;;;;;97.57;23.50;;;;;14.30;100556.00;;;;5047431;28;20059;-71
2021/08/17 11:12:03;;;;;;;136.48;22.90;;;;;14.20;100577.00;;;;5049468;28;20028;-70
2021/08/17 11:14:41;;;;;;;75.55;24.25;;;;;14.30;100577.00;;;;5047488;28;20028;-71
2021/08/17 11:17:19;;;;;;;128.50;23.13;;;;;14.30;100579.00;;;;5047163;28;20086;-71
2021/08/17 11:19:48;;;;;;;300.45;23.05;;;;;14.20;100581.00;;;;5047511;28;20044;-71
2021/08/17 11:22:37;;;;;;;80.85;21.45;;;;;14.40;100575.00;;;;5046911;28;20083;-72
2021/08/17 11:25:06;;;;;;;105.05;19.70;;;;;14.40;100577.00;;;;5047055;28;20496;-72
2021/08/17 11:27:44;;;;;;;81.63;19.80;;;;;14.50;100573.00;;;;5047607;28;20036;-71
2021/08/17 11:30:13;;;;;;;38.10;20.45;;;;;14.50;100574.00;;;;5046631;28;20037;-71
2021/08/17 11:32:45;;;;;;;64.70;19.60;;;;;14.70;100579.00;;;;5046805;28;20545;-72
2021/08/17 11:35:13;;;;;;;62.60;16.48;;;;;14.60;100590.00;;;;5047271;28;20033;-69
2021/08/17 11:37:42;;;;;;;163.40;17.60;;;;;14.60;100596.00;;;;5047057;28;20033;-73
2021/08/17 11:40:11;;;;;;;46.70;14.50;;;;;14.70;100591.00;;;;5046738;28;20530;-73
2021/08/17 11:42:43;;;;;;;30.70;16.70;;;;;14.80;100582.00;;;;5046219;28;20028;-70
2021/08/17 11:45:13;;;;;;;154.13;18.52;;;;;14.90;100596.00;;;;5047139;28;20029;-72
2021/08/17 11:47:41;;;;;;;157.40;17.92;;;;;14.80;100600.00;;;;5047148;28;20400;-72
2021/08/17 11:50:10;;;;;;;89.60;18.25;;;;;14.90;100579.00;;;;5046606;28;20435;-72
2021/08/17 11:52:47;;;;;;;35.33;19.15;;;;;15.10;100597.00;;;;5046972;28;20025;-72
2021/08/17 11:55:17;;;;;;;24.08;12.82;;;;;15.20;100587.00;;;;5047274;28;20068;-73